This is the latest recevied weather packets stored in our database for station/object K1ZK-13. If no packets are shown the sender has not sent any weather packets the latest 10 day(s).
| Time | Temp. | Humidity | Pressure | Rain* | Wind** | Luminosity | Snow |
|---|---|---|---|---|---|---|---|
| 1777742791 | 9.44° C | 74% | 1012 hPa | 0 mm | - | 338 W/m² | - |
| 1777742487 | 9.44° C | 74% | 1012 hPa | 0 mm | - | 338 W/m² | - |
| 1777741880 | 10° C | 76% | 1012 hPa | 0 mm | - | 288 W/m² | - |
| 1777741577 | 10° C | 76% | 1012.1 hPa | 0 mm | - | 288 W/m² | - |
| 1777739454 | 9.44° C | 79% | 1012.6 hPa | 0 mm | - | 825 W/m² | - |
| 1777739150 | 9.44° C | 79% | 1012.6 hPa | 0 mm | - | 825 W/m² | - |
| 1777738848 | 8.89° C | 84% | 1012.7 hPa | 0 mm | - | 882 W/m² | - |
| 1777738544 | 8.89° C | 82% | 1012.8 hPa | 0 mm | - | 762 W/m² | - |
| 1777733974 | 6.11° C | 90% | 1013.2 hPa | 0 mm | - | 304 W/m² | - |
| 1777733671 | 6.11° C | 90% | 1013.4 hPa | 0 mm | - | 304 W/m² | - |
| 1777733367 | 6.11° C | 91% | 1013.1 hPa | 0 mm | - | 231 W/m² | - |
| 1777733065 | 6.11° C | 92% | 1013.3 hPa | 7.87 mm | - | 208 W/m² | - |
| 1777732760 | 6.11° C | 93% | 1013.3 hPa | 7.87 mm | - | 263 W/m² | - |
| 1777702483 | 6.67° C | 68% | 1012.3 hPa | 0 mm | - | 0 W/m² | - |
| 1777702179 | 6.67° C | 68% | 1012.4 hPa | 0 mm | - | 0 W/m² | - |
| 1777701874 | 7.78° C | 67% | 1012.6 hPa | 0 mm | - | 0 W/m² | - |
| 1777701571 | 7.78° C | 67% | 1012.1 hPa | 0 mm | - | 0 W/m² | - |
| 1777700358 | 7.22° C | 67% | 1012.4 hPa | 0 mm | - | 0 W/m² | - |
| 1777700055 | 7.22° C | 67% | 1012.6 hPa | 0 mm | - | 0 W/m² | - |
| 1777699753 | 7.22° C | 67% | 1012.2 hPa | 0 mm | - | 0 W/m² | - |
| 1777699451 | 7.22° C | 62% | 1012.4 hPa | 0 mm | - | 0 W/m² | - |
| 1777699148 | 6.11° C | 71% | 1012.3 hPa | 0 mm | - | 0 W/m² | - |
| 1777698847 | 6.11° C | 71% | 1012.4 hPa | 0 mm | - | 0 W/m² | - |
| 1777695515 | 6.11° C | 75% | 1012.2 hPa | 0 mm | - | 0 W/m² | - |
| 1777695212 | 6.11° C | 75% | 1012.2 hPa | 0 mm | - | 0 W/m² | - |
* Rain latest hour (hover to see other rain measurements)
** Current wind speed in m/s (hover to see current wind gust speed)